sensor_id;sensor_type;location;lat;lon;timestamp;P1;durP1;ratioP1;P2;durP2;ratioP2
57985;SDS011;43788;42.670;23.330;2023-05-07T00:01:12;1.30;;;1.20;;
57985;SDS011;43788;42.670;23.330;2023-05-07T00:03:38;1.30;;;1.20;;
57985;SDS011;43788;42.670;23.330;2023-05-07T00:06:04;1.40;;;1.25;;
57985;SDS011;43788;42.670;23.330;2023-05-07T00:08:29;1.05;;;0.95;;
57985;SDS011;43788;42.670;23.330;2023-05-07T00:10:55;0.98;;;0.98;;
57985;SDS011;43788;42.670;23.330;2023-05-07T00:13:20;1.30;;;1.20;;
57985;SDS011;43788;42.670;23.330;2023-05-07T00:15:46;1.02;;;0.98;;
57985;SDS011;43788;42.670;23.330;2023-05-07T00:18:11;1.40;;;1.20;;
57985;SDS011;43788;42.670;23.330;2023-05-07T00:20:36;1.10;;;1.00;;
57985;SDS011;43788;42.670;23.330;2023-05-07T00:23:02;1.15;;;1.05;;
57985;SDS011;43788;42.670;23.330;2023-05-07T00:25:27;1.13;;;1.02;;
57985;SDS011;43788;42.670;23.330;2023-05-07T00:27:53;1.02;;;1.02;;
57985;SDS011;43788;42.670;23.330;2023-05-07T00:30:18;0.80;;;0.80;;
57985;SDS011;43788;42.670;23.330;2023-05-07T00:32:44;0.75;;;0.75;;
57985;SDS011;43788;42.670;23.330;2023-05-07T00:35:10;0.98;;;0.93;;
57985;SDS011;43788;42.670;23.330;2023-05-07T00:37:36;1.00;;;1.00;;
57985;SDS011;43788;42.670;23.330;2023-05-07T00:40:01;0.80;;;0.80;;
57985;SDS011;43788;42.670;23.330;2023-05-07T00:42:29;1.05;;;0.98;;
57985;SDS011;43788;42.670;23.330;2023-05-07T00:44:57;1.13;;;0.80;;
57985;SDS011;43788;42.670;23.330;2023-05-07T00:47:23;2.25;;;1.15;;
57985;SDS011;43788;42.670;23.330;2023-05-07T00:49:49;1.10;;;0.98;;
57985;SDS011;43788;42.670;23.330;2023-05-07T00:52:15;1.83;;;1.00;;
57985;SDS011;43788;42.670;23.330;2023-05-07T00:54:42;7.45;;;1.35;;
57985;SDS011;43788;42.670;23.330;2023-05-07T00:57:07;1.05;;;1.05;;
57985;SDS011;43788;42.670;23.330;2023-05-07T00:59:34;0.88;;;0.88;;
57985;SDS011;43788;42.670;23.330;2023-05-07T01:02:00;0.80;;;0.80;;
57985;SDS011;43788;42.670;23.330;2023-05-07T01:04:25;0.82;;;0.82;;
57985;SDS011;43788;42.670;23.330;2023-05-07T01:06:51;1.00;;;0.90;;
57985;SDS011;43788;42.670;23.330;2023-05-07T01:09:18;1.30;;;1.20;;
57985;SDS011;43788;42.670;23.330;2023-05-07T01:11:45;1.02;;;0.98;;
57985;SDS011;43788;42.670;23.330;2023-05-07T01:14:10;1.10;;;1.02;;
57985;SDS011;43788;42.670;23.330;2023-05-07T01:16:36;0.73;;;0.65;;
57985;SDS011;43788;42.670;23.330;2023-05-07T01:19:02;0.80;;;0.80;;
57985;SDS011;43788;42.670;23.330;2023-05-07T01:21:28;0.77;;;0.77;;
57985;SDS011;43788;42.670;23.330;2023-05-07T01:23:56;1.00;;;0.88;;
57985;SDS011;43788;42.670;23.330;2023-05-07T01:26:22;0.60;;;0.60;;
57985;SDS011;43788;42.670;23.330;2023-05-07T01:28:48;3.75;;;0.70;;
57985;SDS011;43788;42.670;23.330;2023-05-07T01:31:14;0.80;;;0.80;;
57985;SDS011;43788;42.670;23.330;2023-05-07T01:33:41;1.40;;;0.55;;
57985;SDS011;43788;42.670;23.330;2023-05-07T01:36:08;0.98;;;0.88;;
57985;SDS011;43788;42.670;23.330;2023-05-07T01:38:36;0.50;;;0.50;;
57985;SDS011;43788;42.670;23.330;2023-05-07T01:41:02;0.80;;;0.80;;
57985;SDS011;43788;42.670;23.330;2023-05-07T01:43:29;0.38;;;0.38;;
57985;SDS011;43788;42.670;23.330;2023-05-07T01:45:55;0.82;;;0.80;;
57985;SDS011;43788;42.670;23.330;2023-05-07T01:48:20;0.40;;;0.30;;
57985;SDS011;43788;42.670;23.330;2023-05-07T01:50:46;0.35;;;0.35;;
57985;SDS011;43788;42.670;23.330;2023-05-07T01:53:12;0.40;;;0.40;;
57985;SDS011;43788;42.670;23.330;2023-05-07T01:55:37;0.20;;;0.20;;
57985;SDS011;43788;42.670;23.330;2023-05-07T01:58:03;0.40;;;0.40;;
57985;SDS011;43788;42.670;23.330;2023-05-07T02:00:31;0.65;;;0.50;;
57985;SDS011;43788;42.670;23.330;2023-05-07T02:02:57;0.30;;;0.30;;
57985;SDS011;43788;42.670;23.330;2023-05-07T02:05:23;0.40;;;0.40;;
57985;SDS011;43788;42.670;23.330;2023-05-07T02:07:48;0.30;;;0.30;;
57985;SDS011;43788;42.670;23.330;2023-05-07T02:10:14;0.30;;;0.30;;
57985;SDS011;43788;42.670;23.330;2023-05-07T02:12:39;0.38;;;0.38;;
57985;SDS011;43788;42.670;23.330;2023-05-07T02:15:05;1.20;;;0.52;;
57985;SDS011;43788;42.670;23.330;2023-05-07T02:17:30;0.43;;;0.43;;
57985;SDS011;43788;42.670;23.330;2023-05-07T02:19:58;0.47;;;0.47;;
57985;SDS011;43788;42.670;23.330;2023-05-07T02:22:23;0.60;;;0.60;;
57985;SDS011;43788;42.670;23.330;2023-05-07T02:24:50;0.80;;;0.50;;
57985;SDS011;43788;42.670;23.330;2023-05-07T02:27:15;0.90;;;0.68;;
57985;SDS011;43788;42.670;23.330;2023-05-07T02:29:40;0.50;;;0.50;;
57985;SDS011;43788;42.670;23.330;2023-05-07T02:32:06;3.35;;;0.52;;
57985;SDS011;43788;42.670;23.330;2023-05-07T02:34:31;0.73;;;0.73;;
57985;SDS011;43788;42.670;23.330;2023-05-07T02:36:57;0.43;;;0.43;;
57985;SDS011;43788;42.670;23.330;2023-05-07T02:39:22;0.65;;;0.65;;
57985;SDS011;43788;42.670;23.330;2023-05-07T02:41:47;0.47;;;0.47;;
57985;SDS011;43788;42.670;23.330;2023-05-07T02:44:13;0.50;;;0.50;;
57985;SDS011;43788;42.670;23.330;2023-05-07T02:46:38;0.60;;;0.60;;
57985;SDS011;43788;42.670;23.330;2023-05-07T02:49:04;0.55;;;0.55;;
57985;SDS011;43788;42.670;23.330;2023-05-07T02:51:29;0.52;;;0.52;;
57985;SDS011;43788;42.670;23.330;2023-05-07T02:53:55;0.50;;;0.50;;
57985;SDS011;43788;42.670;23.330;2023-05-07T02:56:21;0.75;;;0.50;;
57985;SDS011;43788;42.670;23.330;2023-05-07T02:58:46;0.50;;;0.50;;
57985;SDS011;43788;42.670;23.330;2023-05-07T03:01:12;0.65;;;0.50;;
57985;SDS011;43788;42.670;23.330;2023-05-07T03:03:38;0.60;;;0.50;;
57985;SDS011;43788;42.670;23.330;2023-05-07T03:06:05;0.50;;;0.50;;
57985;SDS011;43788;42.670;23.330;2023-05-07T03:08:32;0.40;;;0.40;;
57985;SDS011;43788;42.670;23.330;2023-05-07T03:10:57;0.40;;;0.40;;
57985;SDS011;43788;42.670;23.330;2023-05-07T03:13:23;0.65;;;0.65;;
57985;SDS011;43788;42.670;23.330;2023-05-07T03:15:48;0.40;;;0.40;;
57985;SDS011;43788;42.670;23.330;2023-05-07T03:18:14;0.60;;;0.60;;
57985;SDS011;43788;42.670;23.330;2023-05-07T03:20:39;0.90;;;0.50;;
57985;SDS011;43788;42.670;23.330;2023-05-07T03:23:05;0.50;;;0.50;;
57985;SDS011;43788;42.670;23.330;2023-05-07T03:25:30;0.60;;;0.60;;
57985;SDS011;43788;42.670;23.330;2023-05-07T03:27:56;0.60;;;0.60;;
57985;SDS011;43788;42.670;23.330;2023-05-07T03:30:22;0.75;;;0.75;;
57985;SDS011;43788;42.670;23.330;2023-05-07T03:32:47;0.55;;;0.40;;
57985;SDS011;43788;42.670;23.330;2023-05-07T03:35:13;0.80;;;0.80;;
57985;SDS011;43788;42.670;23.330;2023-05-07T03:37:38;1.25;;;0.88;;
57985;SDS011;43788;42.670;23.330;2023-05-07T03:40:04;0.55;;;0.55;;
57985;SDS011;43788;42.670;23.330;2023-05-07T03:42:30;1.25;;;0.80;;
57985;SDS011;43788;42.670;23.330;2023-05-07T03:44:56;0.82;;;0.73;;
57985;SDS011;43788;42.670;23.330;2023-05-07T03:47:21;0.73;;;0.73;;
57985;SDS011;43788;42.670;23.330;2023-05-07T03:49:48;0.60;;;0.60;;
57985;SDS011;43788;42.670;23.330;2023-05-07T03:52:14;1.08;;;0.57;;
57985;SDS011;43788;42.670;23.330;2023-05-07T03:54:40;0.65;;;0.65;;
57985;SDS011;43788;42.670;23.330;2023-05-07T04:00:36;1.53;;;0.63;;
57985;SDS011;43788;42.670;23.330;2023-05-07T04:03:05;0.90;;;0.88;;
57985;SDS011;43788;42.670;23.330;2023-05-07T04:05:30;0.93;;;0.93;;
57985;SDS011;43788;42.670;23.330;2023-05-07T04:07:57;0.60;;;0.60;;
57985;SDS011;43788;42.670;23.330;2023-05-07T04:10:23;0.80;;;0.80;;
57985;SDS011;43788;42.670;23.330;2023-05-07T04:12:49;1.65;;;0.77;;
57985;SDS011;43788;42.670;23.330;2023-05-07T04:15:14;0.60;;;0.60;;
57985;SDS011;43788;42.670;23.330;2023-05-07T04:17:40;0.60;;;0.60;;
57985;SDS011;43788;42.670;23.330;2023-05-07T04:20:08;1.05;;;0.90;;
57985;SDS011;43788;42.670;23.330;2023-05-07T04:22:34;1.25;;;0.85;;
57985;SDS011;43788;42.670;23.330;2023-05-07T04:24:59;0.75;;;0.70;;
57985;SDS011;43788;42.670;23.330;2023-05-07T04:27:25;1.67;;;0.68;;
57985;SDS011;43788;42.670;23.330;2023-05-07T04:29:51;0.77;;;0.70;;
57985;SDS011;43788;42.670;23.330;2023-05-07T04:32:20;0.90;;;0.90;;
57985;SDS011;43788;42.670;23.330;2023-05-07T04:34:46;0.68;;;0.63;;
57985;SDS011;43788;42.670;23.330;2023-05-07T04:37:11;1.17;;;1.08;;
57985;SDS011;43788;42.670;23.330;2023-05-07T04:39:37;0.77;;;0.77;;
57985;SDS011;43788;42.670;23.330;2023-05-07T04:42:02;0.88;;;0.88;;
57985;SDS011;43788;42.670;23.330;2023-05-07T04:44:28;0.77;;;0.77;;
57985;SDS011;43788;42.670;23.330;2023-05-07T04:46:56;1.23;;;0.80;;
57985;SDS011;43788;42.670;23.330;2023-05-07T04:49:21;1.25;;;0.90;;
57985;SDS011;43788;42.670;23.330;2023-05-07T04:51:47;1.25;;;0.80;;
57985;SDS011;43788;42.670;23.330;2023-05-07T04:54:12;0.88;;;0.88;;
57985;SDS011;43788;42.670;23.330;2023-05-07T04:56:38;0.60;;;0.60;;
57985;SDS011;43788;42.670;23.330;2023-05-07T04:59:03;1.15;;;1.05;;
57985;SDS011;43788;42.670;23.330;2023-05-07T05:01:28;1.30;;;0.65;;
57985;SDS011;43788;42.670;23.330;2023-05-07T05:03:54;1.08;;;0.98;;
57985;SDS011;43788;42.670;23.330;2023-05-07T05:06:19;0.88;;;0.88;;
57985;SDS011;43788;42.670;23.330;2023-05-07T05:08:45;0.88;;;0.88;;
57985;SDS011;43788;42.670;23.330;2023-05-07T05:11:10;2.03;;;0.90;;
57985;SDS011;43788;42.670;23.330;2023-05-07T05:13:36;0.93;;;0.93;;
57985;SDS011;43788;42.670;23.330;2023-05-07T05:16:01;0.90;;;0.90;;
57985;SDS011;43788;42.670;23.330;2023-05-07T05:18:27;0.80;;;0.80;;
57985;SDS011;43788;42.670;23.330;2023-05-07T05:20:52;1.05;;;0.98;;
57985;SDS011;43788;42.670;23.330;2023-05-07T05:23:17;1.00;;;0.70;;
57985;SDS011;43788;42.670;23.330;2023-05-07T05:25:43;0.80;;;0.80;;
57985;SDS011;43788;42.670;23.330;2023-05-07T05:28:09;1.00;;;0.90;;
57985;SDS011;43788;42.670;23.330;2023-05-07T05:30:34;2.05;;;1.65;;
57985;SDS011;43788;42.670;23.330;2023-05-07T05:33:00;1.05;;;1.02;;
57985;SDS011;43788;42.670;23.330;2023-05-07T05:35:25;0.77;;;0.77;;
57985;SDS011;43788;42.670;23.330;2023-05-07T05:37:51;1.00;;;0.90;;
57985;SDS011;43788;42.670;23.330;2023-05-07T05:40:17;0.80;;;0.80;;
57985;SDS011;43788;42.670;23.330;2023-05-07T05:42:42;0.70;;;0.70;;
57985;SDS011;43788;42.670;23.330;2023-05-07T05:45:08;1.10;;;1.08;;
57985;SDS011;43788;42.670;23.330;2023-05-07T05:47:35;1.00;;;1.00;;
57985;SDS011;43788;42.670;23.330;2023-05-07T05:50:00;0.80;;;0.80;;
57985;SDS011;43788;42.670;23.330;2023-05-07T05:52:26;0.80;;;0.80;;
57985;SDS011;43788;42.670;23.330;2023-05-07T05:54:51;2.10;;;1.10;;
57985;SDS011;43788;42.670;23.330;2023-05-07T05:57:17;1.00;;;1.00;;
57985;SDS011;43788;42.670;23.330;2023-05-07T05:59:42;0.80;;;0.80;;
57985;SDS011;43788;42.670;23.330;2023-05-07T06:02:09;1.17;;;1.00;;
57985;SDS011;43788;42.670;23.330;2023-05-07T06:04:35;1.00;;;1.00;;
57985;SDS011;43788;42.670;23.330;2023-05-07T06:07:00;1.48;;;1.35;;
57985;SDS011;43788;42.670;23.330;2023-05-07T06:09:26;0.85;;;0.85;;
57985;SDS011;43788;42.670;23.330;2023-05-07T06:11:51;1.75;;;0.88;;
57985;SDS011;43788;42.670;23.330;2023-05-07T06:14:20;0.88;;;0.88;;
57985;SDS011;43788;42.670;23.330;2023-05-07T06:16:48;0.85;;;0.85;;
57985;SDS011;43788;42.670;23.330;2023-05-07T06:19:14;0.75;;;0.75;;
57985;SDS011;43788;42.670;23.330;2023-05-07T06:21:43;1.15;;;1.02;;
57985;SDS011;43788;42.670;23.330;2023-05-07T06:24:08;1.20;;;1.10;;
57985;SDS011;43788;42.670;23.330;2023-05-07T06:26:34;0.88;;;0.85;;
57985;SDS011;43788;42.670;23.330;2023-05-07T06:28:59;0.65;;;0.65;;
57985;SDS011;43788;42.670;23.330;2023-05-07T06:31:28;0.80;;;0.80;;
57985;SDS011;43788;42.670;23.330;2023-05-07T06:33:54;0.77;;;0.77;;
57985;SDS011;43788;42.670;23.330;2023-05-07T06:36:20;0.73;;;0.73;;
57985;SDS011;43788;42.670;23.330;2023-05-07T06:38:45;0.65;;;0.65;;
57985;SDS011;43788;42.670;23.330;2023-05-07T06:41:12;0.75;;;0.75;;
57985;SDS011;43788;42.670;23.330;2023-05-07T06:43:37;0.70;;;0.70;;
57985;SDS011;43788;42.670;23.330;2023-05-07T06:46:03;0.60;;;0.60;;
57985;SDS011;43788;42.670;23.330;2023-05-07T06:48:28;1.58;;;0.80;;
57985;SDS011;43788;42.670;23.330;2023-05-07T06:50:54;0.80;;;0.80;;
57985;SDS011;43788;42.670;23.330;2023-05-07T06:53:22;0.65;;;0.65;;
57985;SDS011;43788;42.670;23.330;2023-05-07T06:55:48;1.25;;;0.90;;
57985;SDS011;43788;42.670;23.330;2023-05-07T06:58:14;0.73;;;0.73;;
57985;SDS011;43788;42.670;23.330;2023-05-07T07:00:41;1.33;;;1.23;;
57985;SDS011;43788;42.670;23.330;2023-05-07T07:03:06;0.93;;;0.80;;
57985;SDS011;43788;42.670;23.330;2023-05-07T07:05:32;0.90;;;0.90;;
57985;SDS011;43788;42.670;23.330;2023-05-07T07:07:57;0.93;;;0.93;;
57985;SDS011;43788;42.670;23.330;2023-05-07T07:10:23;0.90;;;0.90;;
57985;SDS011;43788;42.670;23.330;2023-05-07T07:12:49;0.70;;;0.70;;
57985;SDS011;43788;42.670;23.330;2023-05-07T07:15:15;1.08;;;0.90;;
57985;SDS011;43788;42.670;23.330;2023-05-07T07:17:40;0.80;;;0.80;;
57985;SDS011;43788;42.670;23.330;2023-05-07T07:20:07;0.75;;;0.75;;
57985;SDS011;43788;42.670;23.330;2023-05-07T07:22:33;0.60;;;0.60;;
57985;SDS011;43788;42.670;23.330;2023-05-07T07:24:58;0.80;;;0.80;;
57985;SDS011;43788;42.670;23.330;2023-05-07T07:27:24;0.60;;;0.60;;
57985;SDS011;43788;42.670;23.330;2023-05-07T07:29:49;0.85;;;0.80;;
57985;SDS011;43788;42.670;23.330;2023-05-07T07:32:15;0.73;;;0.65;;
57985;SDS011;43788;42.670;23.330;2023-05-07T07:34:40;0.80;;;0.80;;
57985;SDS011;43788;42.670;23.330;2023-05-07T07:37:06;0.70;;;0.70;;
57985;SDS011;43788;42.670;23.330;2023-05-07T07:39:32;0.70;;;0.68;;
57985;SDS011;43788;42.670;23.330;2023-05-07T07:41:57;0.70;;;0.70;;
57985;SDS011;43788;42.670;23.330;2023-05-07T07:44:23;0.75;;;0.68;;
57985;SDS011;43788;42.670;23.330;2023-05-07T07:46:48;0.60;;;0.60;;
57985;SDS011;43788;42.670;23.330;2023-05-07T07:49:14;0.50;;;0.50;;
57985;SDS011;43788;42.670;23.330;2023-05-07T07:51:40;0.60;;;0.60;;
57985;SDS011;43788;42.670;23.330;2023-05-07T07:54:05;0.60;;;0.60;;
57985;SDS011;43788;42.670;23.330;2023-05-07T07:56:32;0.60;;;0.60;;
57985;SDS011;43788;42.670;23.330;2023-05-07T07:58:58;0.80;;;0.80;;
57985;SDS011;43788;42.670;23.330;2023-05-07T08:01:24;1.00;;;1.00;;
57985;SDS011;43788;42.670;23.330;2023-05-07T08:03:49;1.23;;;1.10;;
57985;SDS011;43788;42.670;23.330;2023-05-07T08:06:15;1.10;;;1.10;;
57985;SDS011;43788;42.670;23.330;2023-05-07T08:08:41;0.85;;;0.85;;
57985;SDS011;43788;42.670;23.330;2023-05-07T08:11:06;1.20;;;1.10;;
57985;SDS011;43788;42.670;23.330;2023-05-07T08:13:32;1.45;;;1.00;;
57985;SDS011;43788;42.670;23.330;2023-05-07T08:15:57;0.95;;;0.95;;
57985;SDS011;43788;42.670;23.330;2023-05-07T08:18:23;0.80;;;0.80;;
57985;SDS011;43788;42.670;23.330;2023-05-07T08:20:49;0.80;;;0.80;;
57985;SDS011;43788;42.670;23.330;2023-05-07T08:23:15;0.70;;;0.70;;
57985;SDS011;43788;42.670;23.330;2023-05-07T08:25:41;1.00;;;0.93;;
57985;SDS011;43788;42.670;23.330;2023-05-07T08:28:07;0.90;;;0.90;;
57985;SDS011;43788;42.670;23.330;2023-05-07T08:30:33;1.10;;;1.00;;
57985;SDS011;43788;42.670;23.330;2023-05-07T08:32:59;1.10;;;0.80;;
57985;SDS011;43788;42.670;23.330;2023-05-07T08:35:25;0.80;;;0.80;;
57985;SDS011;43788;42.670;23.330;2023-05-07T08:37:51;0.95;;;0.95;;
57985;SDS011;43788;42.670;23.330;2023-05-07T08:40:17;1.00;;;1.00;;
57985;SDS011;43788;42.670;23.330;2023-05-07T08:42:43;0.90;;;0.80;;
57985;SDS011;43788;42.670;23.330;2023-05-07T08:45:10;0.70;;;0.70;;
57985;SDS011;43788;42.670;23.330;2023-05-07T08:47:58;0.80;;;0.80;;
57985;SDS011;43788;42.670;23.330;2023-05-07T08:50:24;0.80;;;0.80;;
57985;SDS011;43788;42.670;23.330;2023-05-07T08:52:49;0.40;;;0.40;;
57985;SDS011;43788;42.670;23.330;2023-05-07T08:55:15;0.40;;;0.40;;
57985;SDS011;43788;42.670;23.330;2023-05-07T08:57:40;0.60;;;0.60;;
57985;SDS011;43788;42.670;23.330;2023-05-07T09:00:06;0.60;;;0.57;;
57985;SDS011;43788;42.670;23.330;2023-05-07T09:02:34;0.65;;;0.65;;
57985;SDS011;43788;42.670;23.330;2023-05-07T09:05:01;0.50;;;0.50;;
57985;SDS011;43788;42.670;23.330;2023-05-07T09:07:26;0.60;;;0.60;;
57985;SDS011;43788;42.670;23.330;2023-05-07T09:09:52;0.60;;;0.60;;
57985;SDS011;43788;42.670;23.330;2023-05-07T09:12:20;0.80;;;0.70;;
57985;SDS011;43788;42.670;23.330;2023-05-07T09:14:46;0.60;;;0.60;;
57985;SDS011;43788;42.670;23.330;2023-05-07T09:17:12;0.75;;;0.73;;
57985;SDS011;43788;42.670;23.330;2023-05-07T09:19:38;1.02;;;0.60;;
57985;SDS011;43788;42.670;23.330;2023-05-07T09:22:04;0.50;;;0.50;;
57985;SDS011;43788;42.670;23.330;2023-05-07T09:24:30;0.50;;;0.50;;
57985;SDS011;43788;42.670;23.330;2023-05-07T09:27:00;0.55;;;0.40;;
57985;SDS011;43788;42.670;23.330;2023-05-07T09:29:27;2.40;;;0.70;;
57985;SDS011;43788;42.670;23.330;2023-05-07T09:32:00;0.70;;;0.50;;
57985;SDS011;43788;42.670;23.330;2023-05-07T09:34:30;0.77;;;0.50;;
57985;SDS011;43788;42.670;23.330;2023-05-07T09:36:56;0.40;;;0.40;;
57985;SDS011;43788;42.670;23.330;2023-05-07T09:39:23;0.50;;;0.50;;
57985;SDS011;43788;42.670;23.330;2023-05-07T09:41:49;0.60;;;0.55;;
57985;SDS011;43788;42.670;23.330;2023-05-07T09:44:16;2.50;;;0.73;;
57985;SDS011;43788;42.670;23.330;2023-05-07T09:46:43;0.43;;;0.43;;
57985;SDS011;43788;42.670;23.330;2023-05-07T09:49:12;0.50;;;0.50;;
57985;SDS011;43788;42.670;23.330;2023-05-07T09:51:45;0.70;;;0.43;;
57985;SDS011;43788;42.670;23.330;2023-05-07T09:54:14;0.40;;;0.40;;
57985;SDS011;43788;42.670;23.330;2023-05-07T09:56:40;0.68;;;0.65;;
57985;SDS011;43788;42.670;23.330;2023-05-07T10:01:41;0.60;;;0.60;;
57985;SDS011;43788;42.670;23.330;2023-05-07T10:04:08;0.50;;;0.50;;
57985;SDS011;43788;42.670;23.330;2023-05-07T10:06:34;1.98;;;0.60;;
57985;SDS011;43788;42.670;23.330;2023-05-07T10:09:02;0.60;;;0.60;;
57985;SDS011;43788;42.670;23.330;2023-05-07T10:11:28;0.40;;;0.40;;
57985;SDS011;43788;42.670;23.330;2023-05-07T10:13:54;0.50;;;0.50;;
57985;SDS011;43788;42.670;23.330;2023-05-07T10:16:20;0.40;;;0.40;;
57985;SDS011;43788;42.670;23.330;2023-05-07T10:18:46;2.13;;;0.77;;
57985;SDS011;43788;42.670;23.330;2023-05-07T10:21:16;0.30;;;0.30;;
57985;SDS011;43788;42.670;23.330;2023-05-07T10:23:50;0.30;;;0.30;;
57985;SDS011;43788;42.670;23.330;2023-05-07T10:26:19;0.98;;;0.45;;
57985;SDS011;43788;42.670;23.330;2023-05-07T10:28:47;0.40;;;0.40;;
57985;SDS011;43788;42.670;23.330;2023-05-07T10:34:14;2.85;;;0.40;;
57985;SDS011;43788;42.670;23.330;2023-05-07T10:36:42;0.55;;;0.40;;
57985;SDS011;43788;42.670;23.330;2023-05-07T10:39:08;0.75;;;0.60;;
57985;SDS011;43788;42.670;23.330;2023-05-07T10:41:35;0.40;;;0.40;;
57985;SDS011;43788;42.670;23.330;2023-05-07T10:44:01;0.45;;;0.40;;
57985;SDS011;43788;42.670;23.330;2023-05-07T10:46:27;0.40;;;0.40;;
57985;SDS011;43788;42.670;23.330;2023-05-07T10:51:27;0.50;;;0.50;;
57985;SDS011;43788;42.670;23.330;2023-05-07T10:56:40;0.38;;;0.38;;
57985;SDS011;43788;42.670;23.330;2023-05-07T10:59:51;0.32;;;0.30;;
57985;SDS011;43788;42.670;23.330;2023-05-07T11:01:59;1.02;;;0.40;;
57985;SDS011;43788;42.670;23.330;2023-05-07T11:04:31;0.30;;;0.30;;
57985;SDS011;43788;42.670;23.330;2023-05-07T11:15:09;0.40;;;0.40;;
57985;SDS011;43788;42.670;23.330;2023-05-07T11:17:35;0.30;;;0.30;;
57985;SDS011;43788;42.670;23.330;2023-05-07T11:20:20;0.50;;;0.40;;
57985;SDS011;43788;42.670;23.330;2023-05-07T11:22:46;0.40;;;0.40;;
57985;SDS011;43788;42.670;23.330;2023-05-07T11:25:21;0.50;;;0.50;;
57985;SDS011;43788;42.670;23.330;2023-05-07T11:27:47;0.40;;;0.40;;
57985;SDS011;43788;42.670;23.330;2023-05-07T11:30:22;0.50;;;0.47;;
57985;SDS011;43788;42.670;23.330;2023-05-07T11:32:47;0.50;;;0.45;;
57985;SDS011;43788;42.670;23.330;2023-05-07T11:35:13;0.30;;;0.30;;
57985;SDS011;43788;42.670;23.330;2023-05-07T11:37:43;0.45;;;0.40;;
57985;SDS011;43788;42.670;23.330;2023-05-07T11:40:10;0.98;;;0.40;;
57985;SDS011;43788;42.670;23.330;2023-05-07T11:42:37;0.30;;;0.30;;
57985;SDS011;43788;42.670;23.330;2023-05-07T11:45:03;0.35;;;0.35;;
57985;SDS011;43788;42.670;23.330;2023-05-07T11:47:30;0.45;;;0.45;;
57985;SDS011;43788;42.670;23.330;2023-05-07T11:49:56;2.05;;;0.50;;
57985;SDS011;43788;42.670;23.330;2023-05-07T11:52:23;0.98;;;0.60;;
57985;SDS011;43788;42.670;23.330;2023-05-07T11:54:52;0.40;;;0.40;;
57985;SDS011;43788;42.670;23.330;2023-05-07T11:57:19;0.30;;;0.30;;
57985;SDS011;43788;42.670;23.330;2023-05-07T11:59:45;0.30;;;0.30;;
57985;SDS011;43788;42.670;23.330;2023-05-07T12:02:13;0.40;;;0.40;;
57985;SDS011;43788;42.670;23.330;2023-05-07T12:04:40;0.93;;;0.50;;
57985;SDS011;43788;42.670;23.330;2023-05-07T12:07:05;2.08;;;0.52;;
57985;SDS011;43788;42.670;23.330;2023-05-07T12:09:38;0.38;;;0.38;;
57985;SDS011;43788;42.670;23.330;2023-05-07T12:12:04;0.47;;;0.47;;
57985;SDS011;43788;42.670;23.330;2023-05-07T12:14:29;0.52;;;0.45;;
57985;SDS011;43788;42.670;23.330;2023-05-07T12:16:55;0.70;;;0.30;;
57985;SDS011;43788;42.670;23.330;2023-05-07T12:19:21;2.92;;;0.50;;
57985;SDS011;43788;42.670;23.330;2023-05-07T12:21:46;0.85;;;0.60;;
57985;SDS011;43788;42.670;23.330;2023-05-07T12:24:13;0.47;;;0.47;;
57985;SDS011;43788;42.670;23.330;2023-05-07T12:26:39;0.35;;;0.35;;
57985;SDS011;43788;42.670;23.330;2023-05-07T12:29:06;0.45;;;0.25;;
57985;SDS011;43788;42.670;23.330;2023-05-07T12:31:32;0.30;;;0.30;;
57985;SDS011;43788;42.670;23.330;2023-05-07T12:33:57;0.35;;;0.35;;
57985;SDS011;43788;42.670;23.330;2023-05-07T12:36:23;0.43;;;0.28;;
57985;SDS011;43788;42.670;23.330;2023-05-07T12:38:51;0.40;;;0.40;;
57985;SDS011;43788;42.670;23.330;2023-05-07T12:41:16;0.52;;;0.40;;
57985;SDS011;43788;42.670;23.330;2023-05-07T12:43:43;0.52;;;0.40;;
57985;SDS011;43788;42.670;23.330;2023-05-07T12:46:09;1.48;;;0.77;;
57985;SDS011;43788;42.670;23.330;2023-05-07T12:48:38;1.67;;;0.40;;
57985;SDS011;43788;42.670;23.330;2023-05-07T12:51:08;0.20;;;0.20;;
57985;SDS011;43788;42.670;23.330;2023-05-07T12:53:39;0.20;;;0.20;;
57985;SDS011;43788;42.670;23.330;2023-05-07T12:56:05;0.40;;;0.40;;
57985;SDS011;43788;42.670;23.330;2023-05-07T12:58:33;0.60;;;0.30;;
57985;SDS011;43788;42.670;23.330;2023-05-07T13:01:00;0.20;;;0.20;;
57985;SDS011;43788;42.670;23.330;2023-05-07T13:03:33;0.40;;;0.40;;
57985;SDS011;43788;42.670;23.330;2023-05-07T13:06:07;0.40;;;0.40;;
57985;SDS011;43788;42.670;23.330;2023-05-07T13:08:38;0.30;;;0.30;;
57985;SDS011;43788;42.670;23.330;2023-05-07T13:11:08;0.20;;;0.20;;
57985;SDS011;43788;42.670;23.330;2023-05-07T13:13:35;0.20;;;0.20;;
57985;SDS011;43788;42.670;23.330;2023-05-07T13:16:02;0.40;;;0.40;;
57985;SDS011;43788;42.670;23.330;2023-05-07T13:18:32;0.30;;;0.30;;
57985;SDS011;43788;42.670;23.330;2023-05-07T13:20:58;0.40;;;0.40;;
57985;SDS011;43788;42.670;23.330;2023-05-07T13:23:25;0.30;;;0.30;;
57985;SDS011;43788;42.670;23.330;2023-05-07T13:25:51;0.90;;;0.30;;
57985;SDS011;43788;42.670;23.330;2023-05-07T13:28:21;0.30;;;0.30;;
57985;SDS011;43788;42.670;23.330;2023-05-07T13:30:46;0.28;;;0.28;;
57985;SDS011;43788;42.670;23.330;2023-05-07T13:33:12;0.75;;;0.40;;
57985;SDS011;43788;42.670;23.330;2023-05-07T13:35:38;0.30;;;0.30;;
57985;SDS011;43788;42.670;23.330;2023-05-07T13:38:03;0.32;;;0.32;;
57985;SDS011;43788;42.670;23.330;2023-05-07T13:40:30;1.20;;;0.32;;
57985;SDS011;43788;42.670;23.330;2023-05-07T13:42:57;2.53;;;0.40;;
57985;SDS011;43788;42.670;23.330;2023-05-07T13:45:23;0.20;;;0.20;;
57985;SDS011;43788;42.670;23.330;2023-05-07T13:47:50;0.38;;;0.38;;
57985;SDS011;43788;42.670;23.330;2023-05-07T13:50:16;0.40;;;0.40;;
57985;SDS011;43788;42.670;23.330;2023-05-07T13:52:43;0.32;;;0.32;;
57985;SDS011;43788;42.670;23.330;2023-05-07T13:55:10;0.25;;;0.25;;
57985;SDS011;43788;42.670;23.330;2023-05-07T13:57:36;0.47;;;0.47;;
57985;SDS011;43788;42.670;23.330;2023-05-07T14:00:03;0.20;;;0.20;;
57985;SDS011;43788;42.670;23.330;2023-05-07T14:02:30;0.30;;;0.30;;
57985;SDS011;43788;42.670;23.330;2023-05-07T14:04:56;0.63;;;0.40;;
57985;SDS011;43788;42.670;23.330;2023-05-07T14:07:21;0.40;;;0.40;;
57985;SDS011;43788;42.670;23.330;2023-05-07T14:09:48;0.40;;;0.40;;
57985;SDS011;43788;42.670;23.330;2023-05-07T14:12:14;0.40;;;0.40;;
57985;SDS011;43788;42.670;23.330;2023-05-07T14:14:40;0.20;;;0.20;;
57985;SDS011;43788;42.670;23.330;2023-05-07T14:17:06;0.30;;;0.30;;
57985;SDS011;43788;42.670;23.330;2023-05-07T14:19:31;0.28;;;0.25;;
57985;SDS011;43788;42.670;23.330;2023-05-07T14:21:57;0.30;;;0.30;;
57985;SDS011;43788;42.670;23.330;2023-05-07T14:24:23;0.73;;;0.40;;
57985;SDS011;43788;42.670;23.330;2023-05-07T14:26:50;0.30;;;0.30;;
57985;SDS011;43788;42.670;23.330;2023-05-07T14:29:16;0.40;;;0.30;;
57985;SDS011;43788;42.670;23.330;2023-05-07T14:31:44;0.20;;;0.20;;
57985;SDS011;43788;42.670;23.330;2023-05-07T14:34:10;0.20;;;0.20;;
57985;SDS011;43788;42.670;23.330;2023-05-07T14:36:36;0.73;;;0.25;;
57985;SDS011;43788;42.670;23.330;2023-05-07T14:39:02;0.98;;;0.68;;
57985;SDS011;43788;42.670;23.330;2023-05-07T14:41:28;0.30;;;0.30;;
57985;SDS011;43788;42.670;23.330;2023-05-07T14:43:53;0.13;;;0.13;;
57985;SDS011;43788;42.670;23.330;2023-05-07T14:46:19;0.35;;;0.35;;
57985;SDS011;43788;42.670;23.330;2023-05-07T14:48:45;0.30;;;0.30;;
57985;SDS011;43788;42.670;23.330;2023-05-07T14:51:13;0.43;;;0.43;;